createdAt,value
2023-03-19T00:00:09.216Z,100828.52
2023-03-19T00:01:11.449Z,100825.00
2023-03-19T00:02:17.861Z,100822.34
2023-03-19T00:03:24.688Z,100824.06
2023-03-19T00:04:29.257Z,100823.20
2023-03-19T00:05:31.658Z,100818.75
2023-03-19T00:06:36.502Z,100820.55
2023-03-19T00:07:46.040Z,100815.23
2023-03-19T00:08:48.118Z,100815.98
2023-03-19T00:09:54.392Z,100823.95
2023-03-19T00:11:00.491Z,100822.23
2023-03-19T00:12:04.876Z,100828.41
2023-03-19T00:13:15.548Z,100816.92
2023-03-19T00:14:20.914Z,100822.23
2023-03-19T00:15:26.112Z,100817.78
2023-03-19T00:16:28.354Z,100817.78
2023-03-19T00:17:30.408Z,100815.98
2023-03-19T00:18:38.891Z,100817.59
2023-03-19T00:19:44.274Z,100816.84
2023-03-19T00:20:51.414Z,100808.77
2023-03-19T00:21:54.975Z,100809.73
2023-03-19T00:22:58.831Z,100809.73
2023-03-19T00:24:01.504Z,100809.73
2023-03-19T00:25:10.818Z,100808.88
2023-03-19T00:26:13.656Z,100799.19
2023-03-19T00:27:18.889Z,100801.84
2023-03-19T00:28:22.896Z,100800.98
2023-03-19T00:29:27.998Z,100798.44
2023-03-19T00:30:35.957Z,100795.78
2023-03-19T00:31:39.521Z,100791.40
2023-03-19T00:32:43.534Z,100792.38
2023-03-19T00:33:47.813Z,100790.57
2023-03-19T00:34:50.025Z,100789.72
2023-03-19T00:35:53.582Z,100787.05
2023-03-19T00:36:56.281Z,100789.72
2023-03-19T00:37:58.988Z,100792.38
2023-03-19T00:39:01.572Z,100791.51
2023-03-19T00:40:08.560Z,100792.38
2023-03-19T00:41:12.160Z,100795.10
2023-03-19T00:42:18.177Z,100790.65
2023-03-19T00:43:22.330Z,100798.62
2023-03-19T00:44:25.097Z,100797.76
2023-03-19T00:45:32.971Z,100799.55
2023-03-19T00:46:39.642Z,100786.27
2023-03-19T00:47:44.249Z,100790.65
2023-03-19T00:48:53.383Z,100793.30
2023-03-19T00:49:57.569Z,100791.59
2023-03-19T00:51:10.971Z,100793.30
2023-03-19T00:52:14.392Z,100788.85
2023-03-19T00:53:21.390Z,100798.55
2023-03-19T00:54:25.392Z,100786.20
2023-03-19T00:55:28.155Z,100782.68
2023-03-19T00:56:30.344Z,100788.92
2023-03-19T00:57:32.951Z,100787.13
2023-03-19T00:58:35.245Z,100792.45
2023-03-19T00:59:37.550Z,100787.99
2023-03-19T01:00:43.173Z,100784.48
2023-03-19T01:01:51.919Z,100786.27
2023-03-19T01:02:54.261Z,100787.13
2023-03-19T01:03:58.339Z,100788.10
2023-03-19T01:05:01.386Z,100791.59
2023-03-19T01:06:03.858Z,100786.27
2023-03-19T01:07:29.102Z,100781.93
2023-03-19T01:08:32.021Z,100780.13
2023-03-19T01:09:34.270Z,100780.96
2023-03-19T01:10:36.469Z,100779.27
2023-03-19T01:11:43.776Z,100779.27
2023-03-19T01:12:46.577Z,100781.93
2023-03-19T01:13:56.840Z,100774.90
2023-03-19T01:14:59.799Z,100779.27
2023-03-19T01:16:02.652Z,100772.24
2023-03-19T01:17:04.833Z,100780.20
2023-03-19T01:18:11.142Z,100774.03
2023-03-19T01:19:15.227Z,100774.03
2023-03-19T01:20:17.854Z,100773.20
2023-03-19T01:21:20.817Z,100775.86
2023-03-19T01:22:24.885Z,100773.20
2023-03-19T01:23:30.580Z,100774.03
2023-03-19T01:24:33.237Z,100769.69
2023-03-19T01:25:39.065Z,100773.20
2023-03-19T01:26:44.213Z,100772.34
2023-03-19T01:27:49.372Z,100779.45
2023-03-19T01:28:52.172Z,100779.53
2023-03-19T01:30:00.200Z,100772.61
2023-03-19T01:31:13.226Z,100776.23
2023-03-19T01:32:24.328Z,100773.58
2023-03-19T01:33:33.998Z,100774.52
2023-03-19T01:34:39.783Z,100771.97
2023-03-19T01:35:46.969Z,100772.91
2023-03-19T01:36:49.902Z,100773.95
2023-03-19T01:37:54.013Z,100768.64
2023-03-19T01:38:58.527Z,100771.48
2023-03-19T01:40:00.836Z,100780.38
2023-03-19T01:41:03.591Z,100773.45
2023-03-19T01:42:06.752Z,100776.11
2023-03-19T01:43:25.901Z,100781.53
2023-03-19T01:44:36.205Z,100778.95
2023-03-19T01:46:17.304Z,100778.95
2023-03-19T01:47:35.622Z,100776.30
2023-03-19T01:48:49.786Z,100783.44
2023-03-19T01:49:55.625Z,100779.06
2023-03-19T01:50:59.260Z,100780.96
2023-03-19T01:52:04.719Z,100774.04
2023-03-19T01:53:12.609Z,100788.25
2023-03-19T01:54:22.415Z,100785.70
2023-03-19T01:55:29.522Z,100783.98
2023-03-19T01:56:36.669Z,100780.47
2023-03-19T01:58:58.611Z,100781.72
2023-03-19T02:00:05.946Z,100784.52
2023-03-19T02:01:27.846Z,100783.59
2023-03-19T02:02:32.926Z,100791.45
2023-03-19T02:03:38.429Z,100789.84
2023-03-19T02:04:51.436Z,100787.28
2023-03-19T02:05:55.374Z,100790.88
2023-03-19T02:06:59.321Z,100790.98
2023-03-19T02:08:04.761Z,100787.47
2023-03-19T02:09:07.041Z,100789.37
2023-03-19T02:10:13.400Z,100788.50
2023-03-19T02:11:17.172Z,100787.61
2023-03-19T02:12:19.516Z,100791.20
2023-03-19T02:13:22.748Z,100789.52
2023-03-19T02:14:25.183Z,100790.45
2023-03-19T02:15:27.398Z,100791.30
2023-03-19T02:16:29.751Z,100786.10
2023-03-19T02:17:33.071Z,100790.55
2023-03-19T02:18:35.647Z,100781.80
2023-03-19T02:21:05.263Z,100787.47
2023-03-19T02:22:10.042Z,100792.87
2023-03-19T02:23:22.209Z,100792.87
2023-03-19T02:24:32.446Z,100795.53
2023-03-19T02:25:46.506Z,100797.25
2023-03-19T02:26:50.348Z,100798.19
2023-03-19T02:27:53.499Z,100798.19
2023-03-19T02:28:57.031Z,100795.64
2023-03-19T02:30:22.623Z,100796.56
2023-03-19T02:31:24.856Z,100800.19
2023-03-19T02:32:27.229Z,100793.91
2023-03-19T02:33:29.812Z,100794.02
2023-03-19T02:35:52.051Z,100797.83
2023-03-19T02:37:18.614Z,100797.95
2023-03-19T02:38:22.046Z,100798.92
2023-03-19T02:39:28.311Z,100800.54
2023-03-19T02:40:39.739Z,100797.03
2023-03-19T02:41:42.707Z,100800.61
2023-03-19T02:42:45.020Z,100800.61
2023-03-19T02:43:47.095Z,100797.20
2023-03-19T02:44:49.557Z,100795.48
2023-03-19T02:45:51.904Z,100796.34
2023-03-19T02:46:54.322Z,100799.95
2023-03-19T02:47:56.999Z,100801.75
2023-03-19T02:48:59.283Z,100805.34
2023-03-19T02:50:02.016Z,100800.03
2023-03-19T02:51:04.812Z,100806.20
2023-03-19T02:52:07.457Z,100804.47
2023-03-19T02:53:09.655Z,100801.82
2023-03-19T02:54:11.834Z,100797.48
2023-03-19T02:55:14.040Z,100796.52
2023-03-19T02:56:16.314Z,100803.64
2023-03-19T02:57:18.609Z,100805.34
2023-03-19T02:58:21.278Z,100803.64
2023-03-19T02:59:23.449Z,100797.48
2023-03-19T03:00:26.672Z,100805.44
2023-03-19T03:01:28.992Z,100808.09
2023-03-19T03:02:31.333Z,100803.72
2023-03-19T03:03:33.425Z,100805.51
2023-03-19T03:04:35.957Z,100809.88
2023-03-19T03:05:38.541Z,100805.51
2023-03-19T03:06:40.831Z,100808.16
2023-03-19T03:07:42.915Z,100812.61
2023-03-19T03:08:46.325Z,100807.41
2023-03-19T03:09:48.433Z,100810.16
2023-03-19T03:10:50.948Z,100806.65
2023-03-19T03:11:53.945Z,100811.09
2023-03-19T03:12:56.495Z,100813.75
2023-03-19T03:13:59.644Z,100813.81
2023-03-19T03:15:02.792Z,100814.78
2023-03-19T03:16:06.020Z,100813.05
2023-03-19T03:17:08.850Z,100811.37
2023-03-19T03:18:11.065Z,100814.85
2023-03-19T03:19:13.798Z,100812.20
2023-03-19T03:20:18.115Z,100812.30
2023-03-19T03:21:20.731Z,100804.41
2023-03-19T03:22:22.934Z,100804.41
2023-03-19T03:23:24.975Z,100811.54
2023-03-19T03:24:27.605Z,100808.89
2023-03-19T03:25:30.178Z,100808.03
2023-03-19T03:26:32.608Z,100805.45
2023-03-19T03:27:34.989Z,100804.62
2023-03-19T03:28:37.172Z,100806.41
2023-03-19T03:29:40.649Z,100810.85
2023-03-19T03:30:43.923Z,100803.83
2023-03-19T03:31:46.883Z,100809.13
2023-03-19T03:32:49.490Z,100806.48
2023-03-19T03:33:51.668Z,100805.72
2023-03-19T03:34:54.196Z,100809.30
2023-03-19T03:35:56.388Z,100804.00
2023-03-19T03:36:59.057Z,100804.96
2023-03-19T03:38:01.262Z,100808.55
2023-03-19T03:39:03.668Z,100805.89
2023-03-19T03:40:08.255Z,100817.46
2023-03-19T03:41:11.012Z,100814.88
2023-03-19T03:42:14.174Z,100806.06
2023-03-19T03:43:16.465Z,100809.67
2023-03-19T03:44:19.072Z,100809.75
2023-03-19T03:45:22.574Z,100807.09
2023-03-19T03:46:26.579Z,100808.88
2023-03-19T03:47:28.776Z,100808.06
2023-03-19T03:48:30.853Z,100809.91
2023-03-19T03:49:32.902Z,100806.44
2023-03-19T03:50:35.593Z,100802.06
2023-03-19T03:51:39.995Z,100805.64
2023-03-19T03:52:42.607Z,100805.81
2023-03-19T03:53:44.883Z,100809.33
2023-03-19T03:54:47.361Z,100806.67
2023-03-19T03:55:49.832Z,100802.41
2023-03-19T03:56:54.224Z,100807.70
2023-03-19T03:57:56.612Z,100809.50
2023-03-19T03:58:58.913Z,100811.39
2023-03-19T04:00:01.329Z,100810.52
2023-03-19T04:01:03.721Z,100814.90
2023-03-19T04:02:07.002Z,100809.66
2023-03-19T04:03:09.282Z,100812.41
2023-03-19T04:04:11.918Z,100806.25
2023-03-19T04:05:14.243Z,100812.41
2023-03-19T04:06:21.770Z,100803.70
2023-03-19T04:07:26.279Z,100812.48
2023-03-19T04:08:30.298Z,100809.94
2023-03-19T04:09:33.594Z,100803.88
2023-03-19T04:10:40.689Z,100811.83
2023-03-19T04:11:42.987Z,100803.94
2023-03-19T04:12:45.716Z,100807.55
2023-03-19T04:13:48.399Z,100811.13
2023-03-19T04:14:51.219Z,100806.76
2023-03-19T04:15:53.685Z,100812.92
2023-03-19T04:16:57.170Z,100802.42
2023-03-19T04:17:59.624Z,100811.23
2023-03-19T04:19:01.850Z,100810.44
2023-03-19T04:20:06.530Z,100811.30
2023-03-19T04:21:09.088Z,100812.26
2023-03-19T04:22:11.787Z,100806.16
2023-03-19T04:23:14.501Z,100808.81
2023-03-19T04:24:16.956Z,100807.13
2023-03-19T04:25:19.942Z,100801.03
2023-03-19T04:26:22.216Z,100803.68
2023-03-19T04:27:24.903Z,100806.43
2023-03-19T04:28:28.270Z,100802.06
2023-03-19T04:29:30.530Z,100802.92
2023-03-19T04:30:35.436Z,100805.67
2023-03-19T04:31:38.862Z,100803.02
2023-03-19T04:32:41.189Z,100802.16
2023-03-19T04:33:44.093Z,100807.36
2023-03-19T04:34:46.870Z,100804.70
2023-03-19T04:35:49.271Z,100804.70
2023-03-19T04:36:51.333Z,100808.22
2023-03-19T04:37:53.514Z,100801.23
2023-03-19T04:38:56.964Z,100801.12
2023-03-19T04:39:59.592Z,100805.57
2023-03-19T04:41:01.974Z,100804.55
2023-03-19T04:42:04.525Z,100806.27
2023-03-19T04:43:08.640Z,100808.91
2023-03-19T04:44:11.118Z,100806.16
2023-03-19T04:45:14.959Z,100799.08
2023-03-19T04:46:17.953Z,100801.66
2023-03-19T04:47:20.196Z,100797.98
2023-03-19T04:48:27.007Z,100802.31
2023-03-19T04:49:29.511Z,100798.73
2023-03-19T04:50:32.253Z,100800.46
2023-03-19T04:51:35.326Z,100804.73
2023-03-19T04:52:37.652Z,100799.33
2023-03-19T04:53:40.396Z,100799.23
2023-03-19T04:54:42.513Z,100798.30
2023-03-19T04:55:44.661Z,100798.13
2023-03-19T04:56:51.898Z,100800.68
2023-03-19T04:57:55.634Z,100800.52
2023-03-19T04:58:59.670Z,100804.88
2023-03-19T05:00:04.217Z,100801.30
2023-03-19T05:01:08.620Z,100805.58
2023-03-19T05:02:12.709Z,100799.31
2023-03-19T05:03:15.606Z,100799.23
2023-03-19T05:04:19.309Z,100806.16
2023-03-19T05:05:22.708Z,100803.41
2023-03-19T05:06:26.384Z,100800.69
2023-03-19T05:07:28.631Z,100801.45
2023-03-19T05:08:32.235Z,100802.20
2023-03-19T05:09:34.939Z,100803.00
2023-03-19T05:10:37.891Z,100799.38
2023-03-19T05:11:41.186Z,100795.70
2023-03-19T05:12:48.238Z,100803.48
2023-03-19T05:13:51.222Z,100798.94
2023-03-19T05:14:55.602Z,100797.07
2023-03-19T05:15:59.826Z,100799.63
2023-03-19T05:17:02.111Z,100795.07
2023-03-19T05:18:06.232Z,100802.00
2023-03-19T05:19:10.284Z,100800.13
2023-03-19T05:20:12.949Z,100799.17
2023-03-19T05:21:17.491Z,100801.65
2023-03-19T05:22:21.040Z,100795.30
2023-03-19T05:23:23.216Z,100793.44
2023-03-19T05:24:27.350Z,100797.78
2023-03-19T05:25:30.399Z,100799.40
2023-03-19T05:26:32.570Z,100795.81
2023-03-19T05:27:43.413Z,100799.33
2023-03-19T05:28:47.505Z,100802.63
2023-03-19T05:29:50.852Z,100802.56
2023-03-19T05:31:00.703Z,100798.94
2023-03-19T05:32:05.758Z,100794.42
2023-03-19T05:33:08.989Z,100803.14
2023-03-19T05:34:13.096Z,100801.34
2023-03-19T05:35:15.727Z,100800.38
2023-03-19T05:36:17.914Z,100795.86
2023-03-19T05:37:22.106Z,100793.10
2023-03-19T05:38:26.147Z,100793.86
2023-03-19T05:39:33.238Z,100789.37
2023-03-19T05:40:37.859Z,100794.39
2023-03-19T05:41:41.996Z,100789.77
2023-03-19T05:42:46.001Z,100794.78
2023-03-19T05:43:49.062Z,100791.95
2023-03-19T05:44:53.096Z,100792.63
2023-03-19T05:46:06.325Z,100791.66
2023-03-19T05:47:11.811Z,100792.16
2023-03-19T05:48:15.161Z,100794.27
2023-03-19T05:49:18.893Z,100790.09
2023-03-19T05:50:21.267Z,100796.90
2023-03-19T05:51:31.320Z,100791.40
2023-03-19T05:52:34.029Z,100793.88
2023-03-19T05:53:36.210Z,100785.72
2023-03-19T05:54:43.806Z,100792.75
2023-03-19T05:55:50.451Z,100794.36
2023-03-19T05:56:54.076Z,100794.17
2023-03-19T05:58:06.974Z,100790.55
2023-03-19T05:59:09.656Z,100789.50
2023-03-19T06:00:17.243Z,100791.97
2023-03-19T06:01:21.969Z,100795.41
2023-03-19T06:02:24.736Z,100793.50
2023-03-19T06:03:28.373Z,100796.05
2023-03-19T06:04:32.502Z,100802.14
2023-03-19T06:05:35.138Z,100792.26
2023-03-19T06:06:39.289Z,100794.73
2023-03-19T06:07:41.736Z,100793.75
2023-03-19T06:08:46.129Z,100798.88
2023-03-19T06:10:10.438Z,100792.52
2023-03-19T06:11:12.874Z,100799.17
2023-03-19T06:12:15.729Z,100797.38
2023-03-19T06:13:28.643Z,100797.26
2023-03-19T06:14:41.883Z,100804.19
2023-03-19T06:15:48.092Z,100795.27
2023-03-19T06:16:55.611Z,100800.59
2023-03-19T06:17:58.061Z,100793.44
2023-03-19T06:19:00.275Z,100802.38
2023-03-19T06:20:03.243Z,100798.01
2023-03-19T06:21:05.693Z,100805.98
2023-03-19T06:22:08.319Z,100800.66
2023-03-19T06:23:10.804Z,100799.80
2023-03-19T06:24:12.858Z,100796.32
2023-03-19T06:25:15.666Z,100802.58
2023-03-19T06:26:17.918Z,100799.06
2023-03-19T06:27:27.789Z,100806.17
2023-03-19T06:28:32.580Z,100808.00
2023-03-19T06:29:35.328Z,100804.48
2023-03-19T06:30:39.474Z,100801.91
2023-03-19T06:31:43.677Z,100802.77
2023-03-19T06:32:47.773Z,100805.42
2023-03-19T06:33:50.043Z,100805.54
2023-03-19T06:34:52.925Z,100806.48
2023-03-19T06:35:56.724Z,100810.74
2023-03-19T06:36:58.888Z,100808.20
2023-03-19T06:38:00.926Z,100810.86
2023-03-19T06:39:05.121Z,100809.88
2023-03-19T06:40:11.172Z,100809.88
2023-03-19T06:41:13.341Z,100807.22
2023-03-19T06:42:16.083Z,100810.86
2023-03-19T06:43:18.969Z,100812.54
2023-03-19T06:44:21.289Z,100812.54
2023-03-19T06:45:23.443Z,100808.95
2023-03-19T06:46:25.641Z,100809.80
2023-03-19T06:47:28.019Z,100816.81
2023-03-19T06:48:30.185Z,100818.53
2023-03-19T06:49:32.366Z,100818.53
2023-03-19T06:50:34.786Z,100821.08
2023-03-19T06:51:38.199Z,100814.70
2023-03-19T06:52:40.441Z,100812.05
2023-03-19T06:53:42.882Z,100815.56
2023-03-19T06:54:45.064Z,100815.48
2023-03-19T06:55:47.749Z,100819.01
2023-03-19T06:56:49.840Z,100824.96
2023-03-19T06:57:51.904Z,100816.98
2023-03-19T06:58:54.060Z,100815.30
2023-03-19T06:59:56.226Z,100817.84
2023-03-19T07:00:58.945Z,100815.19
2023-03-19T07:02:01.292Z,100813.27
2023-03-19T07:03:03.841Z,100815.93
2023-03-19T07:04:05.923Z,100816.71
2023-03-19T07:05:08.448Z,100816.59
2023-03-19T07:06:11.533Z,100816.52
2023-03-19T07:07:13.699Z,100821.84
2023-03-19T07:08:15.992Z,100812.89
2023-03-19T07:09:18.151Z,100815.47
2023-03-19T07:10:21.037Z,100814.61
2023-03-19T07:11:24.177Z,100822.47
2023-03-19T07:12:27.424Z,100812.69
2023-03-19T07:13:29.657Z,100819.63
2023-03-19T07:14:31.869Z,100821.34
2023-03-19T07:15:34.537Z,100822.08
2023-03-19T07:16:36.980Z,100822.83
2023-03-19T07:17:39.582Z,100823.61
2023-03-19T07:18:41.733Z,100816.57
2023-03-19T07:19:43.986Z,100820.95
2023-03-19T07:20:46.278Z,100816.37
2023-03-19T07:21:48.440Z,100818.06
2023-03-19T07:22:51.700Z,100819.78
2023-03-19T07:23:53.854Z,100822.44
2023-03-19T07:24:56.126Z,100818.06
2023-03-19T07:25:58.299Z,100815.32
2023-03-19T07:27:00.839Z,100819.78
2023-03-19T07:28:03.805Z,100818.92
2023-03-19T07:29:06.049Z,100819.78
2023-03-19T07:30:10.068Z,100824.98
2023-03-19T07:31:12.183Z,100818.84
2023-03-19T07:32:14.863Z,100821.39
2023-03-19T07:33:17.495Z,100820.45
2023-03-19T07:34:20.132Z,100823.97
2023-03-19T07:35:22.870Z,100823.85
2023-03-19T07:36:25.333Z,100827.37
2023-03-19T07:37:27.441Z,100823.73
2023-03-19T07:38:30.486Z,100826.31
2023-03-19T07:39:32.808Z,100821.94
2023-03-19T07:40:35.396Z,100827.17
2023-03-19T07:41:37.973Z,100826.20
2023-03-19T07:42:41.889Z,100825.27
2023-03-19T07:43:45.020Z,100823.34
2023-03-19T07:44:47.594Z,100824.95
2023-03-19T07:45:49.806Z,100824.13
2023-03-19T07:46:52.124Z,100823.15
2023-03-19T07:47:54.304Z,100823.89
2023-03-19T07:48:56.833Z,100821.23
2023-03-19T07:50:00.028Z,100823.89
2023-03-19T07:51:02.657Z,100821.23
2023-03-19T07:52:04.915Z,100822.09
2023-03-19T07:53:07.641Z,100819.38
2023-03-19T07:54:09.634Z,100825.53
2023-03-19T07:55:11.640Z,100831.62
2023-03-19T07:56:14.540Z,100823.53
2023-03-19T07:57:17.155Z,100823.33
2023-03-19T07:58:19.130Z,100812.69
2023-03-19T07:59:21.438Z,100814.41
2023-03-19T08:00:23.966Z,100816.95
2023-03-19T08:01:26.658Z,100821.33
2023-03-19T08:02:28.797Z,100815.16
2023-03-19T08:03:30.889Z,100819.41
2023-03-19T08:04:33.112Z,100817.61
2023-03-19T08:05:35.495Z,100812.17
2023-03-19T08:06:37.873Z,100816.44
2023-03-19T08:07:40.384Z,100812.84
2023-03-19T08:08:42.541Z,100816.23
2023-03-19T08:09:45.400Z,100821.56
2023-03-19T08:10:47.546Z,100815.30
2023-03-19T08:11:49.736Z,100820.50
2023-03-19T08:12:51.800Z,100824.88
2023-03-19T08:13:54.287Z,100818.62
2023-03-19T08:14:56.365Z,100817.55
2023-03-19T08:15:58.599Z,100815.84
2023-03-19T08:17:00.884Z,100814.89
2023-03-19T08:18:04.524Z,100815.75
2023-03-19T08:19:07.087Z,100818.30
2023-03-19T08:20:11.975Z,100811.05
2023-03-19T08:21:13.998Z,100818.95
2023-03-19T08:22:16.768Z,100816.30
2023-03-19T08:23:19.444Z,100818.84
2023-03-19T08:24:21.676Z,100819.70
2023-03-19T08:25:24.586Z,100816.09
2023-03-19T08:26:27.848Z,100819.50
2023-03-19T08:27:30.257Z,100816.83
2023-03-19T08:28:32.382Z,100813.19
2023-03-19T08:29:34.665Z,100818.44
2023-03-19T08:30:37.870Z,100805.86
2023-03-19T08:31:40.560Z,100802.99
2023-03-19T08:32:43.793Z,100810.90
2023-03-19T08:33:47.248Z,100806.31
2023-03-19T08:34:49.989Z,100808.12
2023-03-19T08:35:52.225Z,100808.86
2023-03-19T08:36:54.744Z,100803.13
2023-03-19T08:37:56.951Z,100806.97
2023-03-19T08:38:59.112Z,100808.36
2023-03-19T08:40:01.519Z,100806.23
2023-03-19T08:41:04.369Z,100798.77
2023-03-19T08:42:06.629Z,100804.42
2023-03-19T08:43:08.721Z,100798.66
2023-03-19T08:44:10.804Z,100806.12
2023-03-19T08:45:15.042Z,100800.70
2023-03-19T08:46:18.287Z,100797.82
2023-03-19T08:47:20.771Z,100797.48
2023-03-19T08:48:23.509Z,100785.97
2023-03-19T08:49:26.030Z,100781.36
2023-03-19T08:50:28.333Z,100783.08
2023-03-19T08:51:30.453Z,100785.63
2023-03-19T08:52:32.625Z,100786.39
2023-03-19T08:53:35.286Z,100785.53
2023-03-19T08:54:37.881Z,100784.55
2023-03-19T08:55:40.689Z,100786.39
2023-03-19T08:56:43.639Z,100784.46
2023-03-19T08:57:46.268Z,100785.32
2023-03-19T08:58:48.502Z,100789.67
2023-03-19T08:59:52.851Z,100789.67
2023-03-19T09:01:03.827Z,100776.34
2023-03-19T09:02:06.774Z,100784.34
2023-03-19T09:03:09.096Z,100777.32
2023-03-19T09:04:11.237Z,100787.98
2023-03-19T09:05:13.956Z,100774.66
2023-03-19T09:06:17.260Z,100783.39
2023-03-19T09:07:19.406Z,100779.77
2023-03-19T09:08:22.012Z,100779.77
2023-03-19T09:09:25.379Z,100776.98
2023-03-19T09:10:28.146Z,100784.89
2023-03-19T09:11:30.366Z,100774.09
2023-03-19T09:12:33.144Z,100771.44
2023-03-19T09:13:35.531Z,100770.48
2023-03-19T09:14:39.265Z,100766.84
2023-03-19T09:15:42.144Z,100767.69
2023-03-19T09:16:44.965Z,100768.42
2023-03-19T09:17:47.101Z,100770.14
2023-03-19T09:18:49.807Z,100773.55
2023-03-19T09:19:53.640Z,100762.02
2023-03-19T09:20:58.371Z,100765.45
2023-03-19T09:22:00.647Z,100762.69
2023-03-19T09:23:03.916Z,100759.08
2023-03-19T09:24:09.499Z,100765.27
2023-03-19T09:25:12.345Z,100763.42
2023-03-19T09:26:14.955Z,100756.28
2023-03-19T09:27:21.736Z,100760.66
2023-03-19T09:28:26.235Z,100758.86
2023-03-19T09:29:30.010Z,100761.39
2023-03-19T09:30:36.624Z,100756.92
2023-03-19T09:31:40.615Z,100755.97
2023-03-19T09:32:44.939Z,100752.31
2023-03-19T09:33:47.642Z,100754.03
2023-03-19T09:34:50.789Z,100752.09
2023-03-19T09:35:54.113Z,100760.10
2023-03-19T09:37:16.662Z,100751.97
2023-03-19T09:38:22.629Z,100747.50
2023-03-19T09:39:24.888Z,100757.09
2023-03-19T09:40:36.947Z,100752.73
2023-03-19T09:42:12.959Z,100757.09
2023-03-19T09:43:43.005Z,100757.09
2023-03-19T09:44:46.464Z,100754.33
2023-03-19T09:45:50.377Z,100753.34
2023-03-19T09:47:02.015Z,100750.67
2023-03-19T09:49:29.753Z,100749.05
2023-03-19T09:50:33.891Z,100751.15
2023-03-19T09:53:07.668Z,100748.42
2023-03-19T09:54:34.392Z,100752.22
2023-03-19T09:55:49.201Z,100739.49
2023-03-19T09:56:52.478Z,100750.06
2023-03-19T09:59:14.480Z,100732.64
2023-03-19T10:00:23.260Z,100736.66
2023-03-19T10:01:29.328Z,100742.85
2023-03-19T10:02:45.207Z,100736.53
2023-03-19T10:03:54.438Z,100741.99
2023-03-19T10:05:09.745Z,100738.47
2023-03-19T10:06:24.832Z,100733.27
2023-03-19T10:07:46.894Z,100729.73
2023-03-19T10:08:58.584Z,100728.02
2023-03-19T10:10:28.335Z,100731.42
2023-03-19T10:11:55.529Z,100723.61
2023-03-19T10:13:27.776Z,100722.69
2023-03-19T10:14:56.466Z,100727.12
2023-03-19T10:16:01.012Z,100720.02
2023-03-19T10:17:10.816Z,100710.20
2023-03-19T10:18:20.976Z,100712.20
2023-03-19T10:20:53.670Z,100710.72
2023-03-19T10:21:59.339Z,100711.05
2023-03-19T10:23:36.931Z,100708.30
2023-03-19T10:24:41.420Z,100703.91
2023-03-19T10:25:43.670Z,100700.17
2023-03-19T10:26:47.864Z,100697.28
2023-03-19T10:27:54.279Z,100694.27
2023-03-19T10:29:03.549Z,100696.52
2023-03-19T10:30:14.259Z,100697.16
2023-03-19T10:31:38.813Z,100695.00
2023-03-19T10:32:45.835Z,100683.02
2023-03-19T10:34:11.038Z,100692.17
2023-03-19T10:35:38.034Z,100691.81
2023-03-19T10:36:40.843Z,100691.98
2023-03-19T10:37:47.041Z,100687.78
2023-03-19T10:38:54.469Z,100687.30
2023-03-19T10:39:58.835Z,100683.31
2023-03-19T10:41:07.660Z,100685.52
2023-03-19T10:43:27.728Z,100674.89
2023-03-19T10:44:34.540Z,100674.77
2023-03-19T10:45:39.193Z,100682.18
2023-03-19T10:46:44.920Z,100680.00
2023-03-19T10:47:48.728Z,100671.75
2023-03-19T10:48:51.261Z,100673.33
2023-03-19T10:49:55.775Z,100668.72
2023-03-19T10:51:05.637Z,100667.75
2023-03-19T10:53:43.431Z,100659.62
2023-03-19T10:54:46.513Z,100664.36
2023-03-19T10:55:56.953Z,100663.51
2023-03-19T10:57:18.762Z,100662.65
2023-03-19T10:58:27.127Z,100657.41
2023-03-19T10:59:32.362Z,100659.12
2023-03-19T11:00:36.393Z,100654.73
2023-03-19T11:01:40.734Z,100652.20
2023-03-19T11:02:48.989Z,100651.48
2023-03-19T11:03:55.029Z,100641.52
2023-03-19T11:06:37.299Z,100643.72
2023-03-19T11:07:39.882Z,100644.80
2023-03-19T11:08:43.084Z,100649.06
2023-03-19T11:09:50.123Z,100638.38
2023-03-19T11:10:52.994Z,100641.05
2023-03-19T11:13:26.023Z,100634.00
2023-03-19T11:14:37.967Z,100638.84
2023-03-19T11:15:40.188Z,100631.69
2023-03-19T11:16:51.864Z,100629.97
2023-03-19T11:17:59.839Z,100637.89
2023-03-19T11:19:02.721Z,100633.50
2023-03-19T11:21:31.931Z,100636.19
2023-03-19T11:22:36.550Z,100636.64
2023-03-19T11:23:41.412Z,100627.67
2023-03-19T11:25:17.554Z,100634.73
2023-03-19T11:26:21.527Z,100617.84
2023-03-19T11:27:33.584Z,100620.28
2023-03-19T11:28:37.129Z,100616.75
2023-03-19T11:29:42.337Z,100621.10
2023-03-19T11:31:00.925Z,100621.23
2023-03-19T11:33:58.595Z,100619.20
2023-03-19T11:35:15.078Z,100615.90
2023-03-19T11:36:22.081Z,100608.61
2023-03-19T11:39:29.238Z,100605.70
2023-03-19T11:40:45.461Z,100612.27
2023-03-19T11:42:00.898Z,100609.33
2023-03-19T11:43:10.045Z,100611.89
2023-03-19T11:44:15.845Z,100608.37
2023-03-19T11:45:42.129Z,100600.35
2023-03-19T11:48:41.349Z,100599.16
2023-03-19T11:51:22.756Z,100591.14
2023-03-19T11:52:31.426Z,100600.25
2023-03-19T11:56:20.947Z,100591.14
2023-03-19T11:57:52.846Z,100595.39
2023-03-19T11:59:18.203Z,100590.63
2023-03-19T12:00:41.303Z,100588.47
2023-03-19T12:02:09.774Z,100591.73
2023-03-19T12:03:39.539Z,100586.03
2023-03-19T12:04:55.570Z,100593.33
2023-03-19T12:06:12.433Z,100588.21
2023-03-19T12:07:34.899Z,100587.61
2023-03-19T12:08:40.537Z,100579.92
2023-03-19T12:09:56.612Z,100576.76
2023-03-19T12:11:23.720Z,100581.97
2023-03-19T12:12:34.604Z,100576.27
2023-03-19T12:13:56.925Z,100574.91
2023-03-19T12:15:23.788Z,100566.75
2023-03-19T12:16:55.442Z,100579.48
2023-03-19T12:20:00.123Z,100570.16
2023-03-19T12:21:18.657Z,100574.44
2023-03-19T12:22:44.678Z,100568.58
2023-03-19T12:24:00.137Z,100561.62
2023-03-19T12:25:38.069Z,100554.75
2023-03-19T12:28:23.855Z,100553.29
2023-03-19T12:30:57.894Z,100548.56
2023-03-19T12:33:54.665Z,100547.11
2023-03-19T12:35:03.135Z,100546.66
2023-03-19T12:36:09.107Z,100548.52
2023-03-19T12:37:32.499Z,100547.98
2023-03-19T12:38:41.584Z,100542.25
2023-03-19T12:39:59.594Z,100541.56
2023-03-19T12:41:07.860Z,100540.17
2023-03-19T12:42:32.150Z,100531.72
2023-03-19T12:44:00.091Z,100533.98
2023-03-19T12:45:03.895Z,100541.63
2023-03-19T12:46:18.468Z,100539.38
2023-03-19T12:48:43.559Z,100523.92
2023-03-19T12:49:58.727Z,100524.59
2023-03-19T12:52:35.360Z,100521.42
2023-03-19T12:53:45.335Z,100520.14
2023-03-19T12:54:59.820Z,100524.52
2023-03-19T12:56:08.596Z,100518.17
2023-03-19T12:58:58.838Z,100515.91
2023-03-19T13:00:13.824Z,100521.55
2023-03-19T13:01:20.570Z,100517.17
2023-03-19T13:02:49.579Z,100520.14
2023-03-19T13:04:10.199Z,100510.50
2023-03-19T13:05:18.825Z,100514.33
2023-03-19T13:06:34.057Z,100510.78
2023-03-19T13:07:56.594Z,100509.34
2023-03-19T13:09:13.998Z,100511.00